Time;durP1;ratioP1;P1;durP2;ratioP2;P2;SDS_P1;SDS_P2;PMS_P1;PMS_P2;Temp;Humidity;BMP_temperature;BMP_pressure;BME280_temperature;BME280_humidity;BME280_pressure;Samples;Min_cycle;Max_cycle;Signal;HPM_P1;HPM_P2
2022/01/31 00:00:44;;;;;;;;;7.50;4.50;;;;;5.17;56.21;99371.69;6282670;20;2754454;-43
2022/01/31 00:03:12;;;;;;;;;4.00;1.00;;;;;5.18;55.71;99358.31;6285126;20;3448514;-42
2022/01/31 00:05:41;;;;;;;;;5.00;2.25;;;;;5.11;56.22;99377.28;6332202;20;1822197;-42
2022/01/31 00:08:09;;;;;;;;;7.00;2.00;;;;;4.98;56.24;99380.50;6313591;20;2756562;-43
2022/01/31 00:10:37;;;;;;;;;6.00;2.67;;;;;5.06;56.36;99386.34;6282822;20;3452360;-42
2022/01/31 00:13:13;;;;;;;;;9.00;3.75;;;;;5.18;55.89;99381.41;6328775;20;1821271;-43
2022/01/31 00:15:46;;;;;;;;;13.60;4.20;;;;;4.93;56.78;99377.16;6337171;20;2781532;-43
2022/01/31 00:18:14;;;;;;;;;13.50;6.00;;;;;4.99;56.47;99368.91;6280236;20;2776467;-43
2022/01/31 00:20:42;;;;;;;;;2.00;1.00;;;;;4.92;56.60;99362.13;6285094;20;3454445;-42
2022/01/31 00:23:10;;;;;;;;;7.00;2.33;;;;;4.98;56.59;99367.19;6314927;20;3456501;-43
2022/01/31 00:25:37;;;;;;;;;12.67;6.00;;;;;5.01;56.50;99367.03;6312117;20;3492253;-43
2022/01/31 00:28:05;;;;;;;;;6.00;2.00;;;;;5.06;56.51;99361.53;6281286;20;2753485;-43
2022/01/31 00:30:34;;;;;;;;;5.00;3.50;;;;;4.94;57.04;99359.41;6331083;20;1819532;-42
2022/01/31 00:33:03;;;;;;;;;5.50;4.25;;;;;4.94;56.67;99344.28;6327555;20;1824970;-42
2022/01/31 00:35:31;;;;;;;;;9.00;3.00;;;;;4.93;56.74;99337.25;6312333;20;2762767;-43
2022/01/31 00:37:59;;;;;;;;;10.50;4.00;;;;;4.86;56.76;99346.44;6313588;20;2750261;-42
2022/01/31 00:40:27;;;;;;;;;3.50;3.00;;;;;4.94;56.65;99343.44;6329051;20;1824990;-43
2022/01/31 00:42:56;;;;;;;;;4.00;3.00;;;;;4.89;56.62;99350.75;6332878;20;1810722;-42
2022/01/31 00:48:05;;;;;;;;;12.50;6.00;;;;;4.73;57.06;99355.88;6312381;20;2779411;-42
2022/01/31 00:50:39;;;;;;;;;9.00;2.00;;;;;4.93;56.34;99358.53;6283563;20;3453371;-43
2022/01/31 00:53:08;;;;;;;;;6.25;5.00;;;;;4.82;56.26;99367.00;6330855;20;1817875;-44
2022/01/31 00:55:35;;;;;;;;;15.00;5.00;;;;;4.76;56.46;99367.22;6311260;20;2776345;-41
2022/01/31 00:58:04;;;;;;;;;10.50;5.00;;;;;4.81;56.46;99364.38;6281764;20;2762839;-44
2022/01/31 01:00:32;;;;;;;;;8.75;4.00;;;;;4.65;56.82;99368.63;6335249;20;1829449;-42
2022/01/31 01:03:02;;;;;;;;;10.00;5.00;;;;;4.67;56.69;99369.44;6335606;20;1830641;-43
2022/01/31 01:05:31;;;;;;;;;5.75;2.00;;;;;4.77;56.58;99363.66;6335354;20;1824357;-42
2022/01/31 01:07:59;;;;;;;;;11.00;4.00;;;;;4.72;56.98;99367.47;6317834;20;2765871;-42
2022/01/31 01:10:27;;;;;;;;;5.75;2.75;;;;;4.76;56.42;99363.72;6305079;20;1818483;-42
2022/01/31 01:12:56;;;;;;;;;4.75;4.00;;;;;4.80;56.20;99357.34;6336140;20;1820151;-42
2022/01/31 01:15:24;;;;;;;;;15.50;4.00;;;;;4.75;56.43;99354.88;6313539;20;2782560;-44
2022/01/31 01:17:53;;;;;;;;;5.50;4.75;;;;;4.64;56.43;99356.28;6305939;20;1825438;-43
2022/01/31 01:20:23;;;;;;;;;1.25;1.25;;;;;4.81;55.80;99346.63;6334289;20;1811817;-42
2022/01/31 01:22:50;;;;;;;;;9.50;4.50;;;;;4.76;55.98;99329.16;6343586;20;1825074;-42
2022/01/31 01:25:19;;;;;;;;;10.25;3.00;;;;;4.65;56.35;99342.03;6302166;20;1835781;-42
2022/01/31 01:27:52;;;;;;;;;2.00;2.00;;;;;4.71;56.05;99337.31;6338546;20;1825340;-43
2022/01/31 01:30:20;;;;;;;;;5.50;4.00;;;;;4.67;56.13;99340.19;6319692;20;2756519;-42
2022/01/31 01:35:16;;;;;;;;;6.67;4.33;;;;;4.72;55.27;99333.75;6285868;20;3482610;-43
2022/01/31 01:37:46;;;;;;;;;8.75;4.00;;;;;4.55;55.69;99329.13;6334992;20;1820130;-42
2022/01/31 01:40:15;;;;;;;;;14.00;5.00;;;;;4.71;55.35;99329.34;6333652;20;1836816;-44
2022/01/31 01:42:44;;;;;;;;;2.00;2.00;;;;;4.68;55.71;99336.59;6328799;20;1817004;-42
2022/01/31 01:45:12;;;;;;;;;12.00;5.00;;;;;4.92;54.95;99340.84;6332213;20;1827453;-43
2022/01/31 01:47:41;;;;;;;;;6.50;2.00;;;;;4.71;55.23;99334.66;6336324;20;1814900;-43
2022/01/31 01:50:10;;;;;;;;;7.00;4.25;;;;;4.57;55.38;99335.25;6333129;20;1817206;-42
2022/01/31 01:52:38;;;;;;;;;8.00;4.00;;;;;4.81;55.15;99343.09;6315948;20;2753508;-45
2022/01/31 01:55:08;;;;;;;;;2.00;2.00;;;;;4.83;55.07;99344.78;6284264;20;2753538;-42
2022/01/31 01:57:37;;;;;;;;;5.75;2.00;;;;;4.63;55.67;99350.06;6334480;20;1825328;-42
2022/01/31 02:00:08;;;;;;;;;3.00;3.00;;;;;4.54;55.90;99355.81;6315940;20;2752402;-42
2022/01/31 02:02:37;;;;;;;;;8.50;3.50;;;;;4.47;56.29;99347.19;6300715;20;1827403;-43
2022/01/31 02:05:06;;;;;;;;;5.00;4.00;;;;;4.34;56.78;99343.34;6332091;20;1820072;-43
2022/01/31 02:07:35;;;;;;;;;8.33;4.67;;;;;4.40;57.96;99340.44;6332412;20;1825422;-46
2022/01/31 02:10:06;;;;;;;;;7.00;4.00;;;;;4.23;57.32;99335.81;6312216;20;3472120;-46
2022/01/31 02:12:46;;;;;;;;;19.00;12.00;;;;;4.10;57.92;99329.28;6305614;20;2781595;-45
2022/01/31 02:15:16;;;;;;;;;4.50;3.50;;;;;4.22;57.13;99334.09;6300797;20;1825333;-44
2022/01/31 02:17:44;;;;;;;;;8.25;3.50;;;;;4.42;56.93;99333.25;6335401;20;1825080;-43
2022/01/31 02:20:13;;;;;;;;;8.00;1.75;;;;;4.28;57.57;99343.59;6333097;20;1825310;-44
2022/01/31 02:22:41;;;;;;;;;7.75;3.25;;;;;4.17;57.45;99341.38;6332890;20;1825330;-47
2022/01/31 02:25:12;;;;;;;;;6.75;4.00;;;;;4.23;56.95;99340.25;6332217;20;1825484;-42
2022/01/31 02:27:40;;;;;;;;;15.50;5.00;;;;;4.39;59.20;99346.66;6312154;20;2787776;-41
2022/01/31 02:30:15;;;;;;;;;4.50;2.00;;;;;4.32;56.96;99342.56;6282670;20;2736745;-44
2022/01/31 02:32:44;;;;;;;;;10.00;1.00;;;;;4.30;57.25;99347.06;6314961;20;3462744;-42
2022/01/31 02:35:13;;;;;;;;;6.75;5.00;;;;;4.28;57.30;99340.94;6331386;20;1820064;-42
2022/01/31 02:37:42;;;;;;;;;7.00;2.00;;;;;4.36;56.87;99352.13;6332144;20;1824357;-42
2022/01/31 02:40:10;;;;;;;;;8.67;4.00;;;;;4.23;57.39;99340.25;6316097;20;3472158;-42
2022/01/31 02:42:39;;;;;;;;;6.00;4.25;;;;;4.21;56.89;99332.34;6299969;20;1823236;-41
2022/01/31 02:45:08;;;;;;;;;6.67;5.00;;;;;4.39;56.35;99328.06;6308975;20;3464847;-42
2022/01/31 02:47:40;;;;;;;;;8.75;3.50;;;;;4.42;56.76;99319.09;6297854;20;1825305;-42
2022/01/31 02:50:12;;;;;;;;;5.00;3.50;;;;;4.41;56.87;99320.91;6330873;20;1820115;-42
2022/01/31 02:52:49;;;;;;;;;7.50;2.50;;;;;4.58;56.14;99325.47;6331210;20;1825334;-43
2022/01/31 02:55:17;;;;;;;;;9.00;4.00;;;;;4.53;56.17;99325.69;6326451;20;1821113;-44
2022/01/31 02:57:46;;;;;;;;;5.50;3.75;;;;;4.59;55.89;99312.13;6331691;20;1825282;-45
2022/01/31 03:00:15;;;;;;;;;5.00;2.67;;;;;4.71;55.77;99305.41;6315449;20;3452354;-44
2022/01/31 03:02:43;;;;;;;;;8.00;2.00;;;;;4.58;56.03;99302.44;6318545;20;2732654;-42
2022/01/31 03:05:11;;;;;;;;;4.75;2.50;;;;;4.56;55.53;99296.31;6329083;20;1825226;-43
2022/01/31 03:07:40;;;;;;;;;6.75;3.00;;;;;4.68;55.68;99302.88;6332504;20;1823192;-42
2022/01/31 03:10:08;;;;;;;;;5.33;1.67;;;;;4.61;55.46;99294.31;6314803;20;3447153;-42
2022/01/31 03:12:37;;;;;;;;;6.25;4.25;;;;;4.67;55.54;99285.22;6331489;20;1825435;-42
2022/01/31 03:15:06;;;;;;;;;2.75;2.50;;;;;4.42;56.83;99288.06;6328682;20;1825334;-43
2022/01/31 03:17:35;;;;;;;;;4.75;1.00;;;;;4.41;56.50;99281.03;6332341;20;1817502;-42
2022/01/31 03:20:23;;;;;;;;;7.00;3.00;;;;;4.10;56.79;99284.09;6331130;20;1825432;-42
2022/01/31 03:22:53;;;;;;;;;8.25;4.00;;;;;4.04;57.26;99287.03;6333357;20;1828487;-42
2022/01/31 03:25:21;;;;;;;;;6.50;1.25;;;;;4.24;57.23;99279.09;6326438;20;1828266;-41
2022/01/31 03:27:49;;;;;;;;;7.00;2.00;;;;;4.15;56.80;99290.97;6315198;20;2748253;-44
2022/01/31 03:30:23;;;;;;;;;7.00;2.00;;;;;4.22;57.21;99293.38;6333836;20;1817062;-44
2022/01/31 03:32:52;;;;;;;;;7.00;3.50;;;;;4.11;56.84;99291.19;6333497;20;1810557;-44
2022/01/31 03:35:21;;;;;;;;;4.25;2.00;;;;;4.15;57.35;99290.97;6326430;20;1822305;-43
2022/01/31 03:37:49;;;;;;;;;11.00;5.00;;;;;4.29;56.35;99281.53;6314350;20;2775277;-42
2022/01/31 03:40:19;;;;;;;;;9.00;4.50;;;;;4.37;56.33;99290.03;6301267;20;1823279;-42
2022/01/31 03:42:48;;;;;;;;;5.50;4.75;;;;;4.28;57.30;99287.78;6332585;20;1825394;-42
2022/01/31 03:45:16;;;;;;;;;12.00;5.67;;;;;4.32;56.53;99287.59;6309086;20;3491019;-43
2022/01/31 03:47:44;;;;;;;;;8.67;5.00;;;;;4.43;56.02;99289.81;6281987;20;3472099;-42
2022/01/31 03:50:18;;;;;;;;;4.75;4.00;;;;;4.64;55.65;99297.78;6299776;20;1820197;-44
2022/01/31 03:52:48;;;;;;;;;7.00;4.75;;;;;4.39;55.69;99289.06;6333465;20;1821116;-42
2022/01/31 03:55:17;;;;;;;;;9.00;4.50;;;;;4.44;55.71;99291.53;6329890;20;1816961;-43
2022/01/31 03:57:45;;;;;;;;;5.67;3.67;;;;;4.57;55.38;99295.38;6312128;20;3459611;-44
2022/01/31 04:00:16;;;;;;;;;5.25;5.00;;;;;4.53;55.13;99292.91;6330634;20;1825498;-42
2022/01/31 04:02:45;;;;;;;;;7.25;3.00;;;;;4.55;54.90;99289.25;6331556;20;1821232;-42
2022/01/31 04:05:14;;;;;;;;;3.50;2.00;;;;;4.67;54.71;99289.69;6328671;20;1821337;-41
2022/01/31 04:07:43;;;;;;;;;8.00;4.00;;;;;4.75;54.51;99287.53;6314450;20;2756531;-42
2022/01/31 04:10:10;;;;;;;;;10.00;6.00;;;;;4.61;54.65;99280.19;6312131;20;2773220;-42
2022/01/31 04:12:40;;;;;;;;;15.40;4.60;;;;;4.56;54.46;99275.06;6305894;20;2784725;-42
2022/01/31 04:15:09;;;;;;;;;11.25;6.00;;;;;4.69;54.47;99274.53;6293545;20;1833865;-43
2022/01/31 04:17:39;;;;;;;;;10.50;5.00;;;;;4.82;54.20;99270.38;6329902;20;1825318;-44
2022/01/31 04:20:08;;;;;;;;;5.50;3.00;;;;;4.70;54.89;99254.97;6313777;20;2737784;-44
2022/01/31 04:22:49;;;;;;;;;22.67;12.67;;;;;4.65;53.86;99256.97;6311803;20;3530469;-43
2022/01/31 04:25:29;;;;;;;;;20.00;14.67;;;;;4.68;54.65;99251.50;6308636;20;3545147;-45
2022/01/31 04:28:03;;;;;;;;;10.75;8.75;;;;;4.64;54.73;99249.94;6332808;20;1818856;-44
2022/01/31 04:30:37;;;;;;;;;30.50;23.00;;;;;4.58;54.94;99249.28;6311486;20;2838782;-48
2022/01/31 04:33:05;;;;;;;;;23.50;16.00;;;;;4.59;54.98;99244.81;6285328;20;2816120;-48
2022/01/31 04:35:35;;;;;;;;;14.00;11.60;;;;;4.77;54.43;99240.47;6310761;20;2782660;-47
2022/01/31 04:38:03;;;;;;;;;9.25;6.00;;;;;4.63;54.98;99249.03;6304668;20;1831139;-48
2022/01/31 04:40:32;;;;;;;;;5.00;3.50;;;;;4.66;54.88;99242.72;6334293;20;1818206;-48
2022/01/31 04:43:00;;;;;;;;;5.67;5.00;;;;;4.71;54.75;99232.75;6318348;20;3457538;-47
2022/01/31 04:45:27;;;;;;;;;10.00;6.00;;;;;4.57;55.10;99233.38;6313916;20;2765954;-45
2022/01/31 04:47:56;;;;;;;;;6.00;6.00;;;;;4.58;54.62;99230.66;6336653;20;1823187;-47
2022/01/31 04:50:24;;;;;;;;;6.00;4.00;;;;;4.63;54.54;99222.44;6318400;20;2756494;-46
2022/01/31 04:52:52;;;;;;;;;19.00;6.00;;;;;4.73;54.37;99209.63;6316416;20;2802427;-46
2022/01/31 04:55:21;;;;;;;;;9.50;4.50;;;;;4.64;55.83;99218.03;6302660;20;1833683;-50
2022/01/31 04:57:50;;;;;;;;;7.00;5.00;;;;;4.72;54.24;99218.53;6333710;20;1812782;-46
2022/01/31 05:00:18;;;;;;;;;6.00;5.00;;;;;4.79;54.90;99218.19;6319790;20;2748227;-46
2022/01/31 05:02:47;;;;;;;;;8.00;5.00;;;;;4.84;53.81;99217.97;6334744;20;1825381;-46
2022/01/31 05:05:15;;;;;;;;;4.50;4.00;;;;;4.73;54.44;99209.63;6335981;20;1814456;-45
2022/01/31 05:07:44;;;;;;;;;6.00;5.33;;;;;4.89;53.35;99213.28;6341914;20;1820129;-49
2022/01/31 05:10:12;;;;;;;;;16.00;7.00;;;;;4.84;53.13;99223.28;6314531;20;2788518;-47
2022/01/31 05:12:41;;;;;;;;;12.50;6.00;;;;;5.05;52.78;99219.66;6285338;20;2767991;-47
2022/01/31 05:15:10;;;;;;;;;8.00;8.00;;;;;5.08;52.83;99223.94;6302222;20;1825419;-46
2022/01/31 05:17:38;;;;;;;;;20.00;9.00;;;;;5.09;52.92;99216.84;6315413;20;2801334;-46
2022/01/31 05:20:07;;;;;;;;;9.00;6.00;;;;;5.02;53.16;99222.44;6283893;20;2757608;-46
2022/01/31 05:22:35;;;;;;;;;11.00;6.00;;;;;5.03;52.80;99213.53;6284453;20;2774207;-46
2022/01/31 05:25:04;;;;;;;;;9.67;4.33;;;;;5.02;52.61;99210.94;6302930;20;1820119;-46
2022/01/31 05:27:33;;;;;;;;;5.50;3.00;;;;;5.00;52.96;99204.81;6333752;20;1820102;-46
2022/01/31 05:30:00;;;;;;;;;8.00;5.00;;;;;5.12;52.37;99201.59;6317117;20;2748191;-46
2022/01/31 05:32:29;;;;;;;;;5.00;2.00;;;;;4.99;52.70;99205.75;6303024;20;1825280;-43
2022/01/31 05:35:00;;;;;;;;;6.50;4.25;;;;;5.10;52.45;99210.56;6333752;20;1825267;-43
2022/01/31 05:37:29;;;;;;;;;6.00;3.00;;;;;5.27;51.87;99194.69;6335577;20;1822156;-43
2022/01/31 05:39:57;;;;;;;;;11.50;4.50;;;;;5.26;51.59;99190.28;6316185;20;2769498;-46
2022/01/31 05:42:25;;;;;;;;;5.00;2.00;;;;;5.12;51.59;99190.94;6302784;20;1825521;-46
2022/01/31 05:44:54;;;;;;;;;6.75;3.50;;;;;5.33;51.35;99189.06;6333003;20;1823300;-43
2022/01/31 05:47:22;;;;;;;;;5.00;2.00;;;;;5.21;51.42;99182.53;6317223;20;2756549;-42
2022/01/31 05:49:50;;;;;;;;;5.67;4.00;;;;;5.38;51.28;99162.22;6314107;20;3447561;-42
2022/01/31 05:52:19;;;;;;;;;8.00;3.00;;;;;5.16;51.10;99149.06;6319750;20;2741949;-43
2022/01/31 05:54:49;;;;;;;;;7.17;4.00;;;;;5.10;51.11;99141.41;6354988;20;1802375;-44
2022/01/31 05:57:18;;;;;;;;;5.25;4.00;;;;;5.23;51.06;99145.19;6304956;20;1814861;-43
2022/01/31 05:59:46;;;;;;;;;2.00;2.00;;;;;5.41;50.83;99146.09;6330814;20;1824351;-43
2022/01/31 06:02:14;;;;;;;;;5.33;2.00;;;;;5.28;50.47;99152.00;6316929;20;3461683;-42
2022/01/31 06:04:42;;;;;;;;;9.00;5.00;;;;;5.26;50.76;99153.88;6284734;20;2754430;-44
2022/01/31 06:07:11;;;;;;;;;6.50;5.50;;;;;5.22;50.59;99157.66;6318263;20;2744145;-42
2022/01/31 06:09:39;;;;;;;;;9.00;4.00;;;;;5.27;50.63;99165.41;6317276;20;2763878;-43
2022/01/31 06:12:10;;;;;;;;;7.00;4.00;;;;;5.27;50.86;99162.75;6316115;20;2746117;-43
2022/01/31 06:14:39;;;;;;;;;8.00;6.00;;;;;5.41;50.26;99162.94;6333612;20;1819176;-43
2022/01/31 06:17:09;;;;;;;;;18.20;12.20;;;;;5.32;50.05;99163.41;6339760;20;2794071;-43
2022/01/31 06:19:36;;;;;;;;;11.00;8.00;;;;;5.28;50.08;99151.16;6283593;20;2768001;-45
2022/01/31 06:22:04;;;;;;;;;10.00;5.00;;;;;5.49;49.84;99154.56;6285452;20;2775613;-42
2022/01/31 06:24:34;;;;;;;;;13.40;11.40;;;;;5.38;50.27;99156.91;6307205;20;2787985;-42
2022/01/31 06:27:04;;;;;;;;;24.67;13.67;;;;;5.43;50.55;99166.38;6284231;20;3546056;-42
2022/01/31 06:29:33;;;;;;;;;13.40;8.00;;;;;5.54;50.33;99157.00;6339269;20;2770032;-43
2022/01/31 06:32:01;;;;;;;;;26.50;19.00;;;;;5.46;50.03;99144.06;6283572;20;2833576;-44
2022/01/31 06:34:29;;;;;;;;;22.50;19.50;;;;;5.46;49.96;99144.94;6280986;20;2500254;-43
2022/01/31 06:37:02;;;;;;;;;15.67;14.00;;;;;5.36;50.26;99145.47;6278262;20;2798370;-42
2022/01/31 06:39:31;;;;;;;;;25.50;16.50;;;;;5.37;50.83;99150.72;6314404;20;2842960;-43
2022/01/31 06:41:58;;;;;;;;;16.00;12.00;;;;;5.20;51.29;99158.66;6280940;20;2776330;-43
2022/01/31 06:44:27;;;;;;;;;12.00;7.50;;;;;5.24;51.46;99155.78;6297093;20;1816004;-43
2022/01/31 06:46:55;;;;;;;;;13.00;6.00;;;;;5.31;51.18;99152.81;6314321;20;2771527;-42
2022/01/31 06:49:24;;;;;;;;;24.33;15.67;;;;;5.33;50.85;99164.25;6279634;20;3572145;-43
2022/01/31 06:51:51;;;;;;;;;16.00;13.00;;;;;5.36;50.87;99148.13;6314066;20;2785757;-43
2022/01/31 06:54:20;;;;;;;;;18.00;10.00;;;;;5.27;51.42;99146.78;6279376;20;2823234;-43
2022/01/31 06:56:48;;;;;;;;;10.00;10.00;;;;;5.27;50.99;99144.13;6312883;20;2770277;-42
2022/01/31 06:59:17;;;;;;;;;8.00;4.50;;;;;5.35;51.01;99131.28;6301105;20;1824429;-45
2022/01/31 07:01:44;;;;;;;;;16.50;8.00;;;;;5.30;50.35;99140.44;6313470;20;2778376;-44
2022/01/31 07:04:12;;;;;;;;;7.00;5.00;;;;;5.39;50.15;99140.84;6283639;20;2748195;-44
2022/01/31 07:06:41;;;;;;;;;7.50;5.00;;;;;5.48;50.36;99142.22;6331394;20;1824783;-43
2022/01/31 07:09:09;;;;;;;;;9.50;6.00;;;;;5.64;50.88;99134.31;6315075;20;2758757;-42
2022/01/31 07:11:40;;;;;;;;;6.50;5.00;;;;;5.49;50.40;99127.94;6281698;20;2750284;-45
2022/01/31 07:14:29;;;;;;;;;14.00;5.50;;;;;5.45;50.84;99116.59;6279904;20;2774214;-44
2022/01/31 07:17:06;;;;;;;;;11.50;6.00;;;;;5.67;49.94;99120.84;6300017;20;1815333;-45
2022/01/31 07:19:37;;;;;;;;;12.00;6.00;;;;;5.46;50.84;99118.31;6315309;20;2763784;-43
2022/01/31 07:22:10;;;;;;;;;12.00;7.00;;;;;5.77;53.62;99105.25;6300992;20;1823379;-43
2022/01/31 07:27:08;;;;;;;;;10.00;6.00;;;;;5.47;50.74;99098.72;6313741;20;2765908;-43
2022/01/31 07:29:36;;;;;;;;;10.00;6.00;;;;;5.77;49.99;99094.59;6279718;20;2757577;-44
2022/01/31 07:32:11;;;;;;;;;6.25;6.00;;;;;5.64;50.81;99094.38;6331844;20;1816139;-44
2022/01/31 07:34:41;;;;;;;;;13.80;7.80;;;;;5.69;50.76;99095.00;6336135;20;2759761;-43
2022/01/31 07:37:10;;;;;;;;;11.00;8.00;;;;;5.66;51.10;99097.78;6310542;20;2771117;-43
2022/01/31 07:39:42;;;;;;;;;9.50;6.00;;;;;5.65;50.81;99101.41;6279088;20;2764866;-44
2022/01/31 07:42:11;;;;;;;;;6.50;5.00;;;;;5.88;49.50;99098.44;6301583;20;1820113;-44
2022/01/31 07:44:39;;;;;;;;;13.00;8.00;;;;;5.73;49.99;99091.22;6305502;20;2765906;-44
2022/01/31 07:47:08;;;;;;;;;14.00;6.00;;;;;5.90;49.76;99095.69;6281225;20;2778438;-44
2022/01/31 07:49:37;;;;;;;;;19.00;11.00;;;;;6.05;49.92;99083.38;6306896;20;2803365;-44
2022/01/31 07:52:06;;;;;;;;;6.00;6.00;;;;;6.06;49.34;99077.97;6280955;20;2749242;-44
2022/01/31 07:54:36;;;;;;;;;9.20;5.20;;;;;6.07;49.58;99076.19;6305868;20;2761819;-43
2022/01/31 07:57:05;;;;;;;;;18.67;15.00;;;;;6.30;49.89;99069.63;6309949;20;3527331;-44
2022/01/31 07:59:54;;;;;;;;;10.00;6.50;;;;;6.07;49.87;99066.38;6314168;20;2758793;-43
2022/01/31 08:02:21;;;;;;;;;10.00;6.00;;;;;6.23;49.83;99066.41;6311297;20;2764853;-43
2022/01/31 08:04:54;;;;;;;;;11.00;7.00;;;;;6.23;49.51;99066.41;6279530;20;2775298;-44
2022/01/31 08:07:23;;;;;;;;;10.00;7.00;;;;;6.05;49.93;99062.06;6276738;20;2749283;-46
2022/01/31 08:09:52;;;;;;;;;23.00;15.00;;;;;6.35;49.06;99059.56;6284680;20;3558573;-44
2022/01/31 08:12:20;;;;;;;;;20.33;17.33;;;;;6.07;49.56;99063.69;6311640;20;3564908;-46
2022/01/31 08:14:48;;;;;;;;;15.00;12.00;;;;;6.11;48.79;99064.44;6310435;20;2785729;-43
2022/01/31 08:17:17;;;;;;;;;24.33;17.00;;;;;6.29;48.47;99050.09;6280323;20;3559613;-46
2022/01/31 08:19:46;;;;;;;;;19.00;15.67;;;;;6.55;48.44;99045.13;6281012;20;3550244;-44
2022/01/31 08:22:14;;;;;;;;;30.50;26.50;;;;;6.46;48.68;99040.31;6312575;20;2854419;-46
2022/01/31 08:24:43;;;;;;;;;24.67;19.33;;;;;6.65;48.39;99045.47;6279221;20;3570069;-44
2022/01/31 08:27:12;;;;;;;;;18.67;15.67;;;;;6.38;48.59;99044.25;6312588;20;3550356;-45
2022/01/31 08:29:40;;;;;;;;;12.50;9.00;;;;;6.64;48.74;99035.78;6312193;20;2769066;-43
2022/01/31 08:32:25;;;;;;;;;16.00;12.50;;;;;6.60;48.81;99037.72;6281159;20;2800291;-44
2022/01/31 08:37:39;;;;;;;;;20.00;15.00;;;;;6.97;48.18;99024.97;6281800;20;2747307;-44
2022/01/31 08:40:08;;;;;;;;;16.00;11.00;;;;;6.72;48.72;99025.53;6280751;20;2797151;-44
2022/01/31 08:42:36;;;;;;;;;10.00;3.00;;;;;6.52;48.78;99023.97;6285294;20;2751431;-44
2022/01/31 08:45:06;;;;;;;;;12.00;11.00;;;;;6.75;48.61;99018.19;6306873;20;2782656;-44
2022/01/31 08:47:34;;;;;;;;;10.00;6.00;;;;;6.65;49.22;99019.66;6283095;20;2759618;-45
2022/01/31 08:50:02;;;;;;;;;11.00;10.00;;;;;6.66;48.60;99015.19;6282059;20;2774284;-44
2022/01/31 08:52:31;;;;;;;;;22.33;14.00;;;;;7.11;47.53;99009.03;6281211;20;2812835;-44
2022/01/31 08:54:59;;;;;;;;;21.50;9.00;;;;;6.75;48.62;99004.88;6308368;20;2791939;-43
2022/01/31 08:57:27;;;;;;;;;15.00;7.00;;;;;6.76;48.45;99001.22;6280340;20;2764837;-44
2022/01/31 08:59:56;;;;;;;;;12.50;9.50;;;;;6.82;48.62;98990.22;6281237;20;2774195;-44
2022/01/31 09:02:37;;;;;;;;;15.67;15.00;;;;;6.85;48.62;98994.53;6279609;20;2791989;-43
2022/01/31 09:05:07;;;;;;;;;11.00;10.50;;;;;6.90;48.22;98996.91;6307840;20;2772136;-43
2022/01/31 09:07:34;;;;;;;;;13.00;11.00;;;;;7.07;48.44;98994.13;6281370;20;2785682;-43
2022/01/31 09:10:05;;;;;;;;;20.00;11.00;;;;;7.12;48.29;98986.72;6275979;20;2807818;-47
2022/01/31 09:12:35;;;;;;;;;15.50;10.00;;;;;7.16;47.49;98984.72;6310843;20;2780565;-44
2022/01/31 09:15:06;;;;;;;;;19.50;14.00;;;;;7.10;49.11;99004.63;6274349;20;2795057;-43
2022/01/31 09:17:37;;;;;;;;;20.14;12.43;;;;;7.03;48.70;98996.13;6317951;20;1823197;-44
2022/01/31 09:20:07;;;;;;;;;17.33;13.67;;;;;7.10;48.26;99004.63;6315333;20;2801460;-44
2022/01/31 09:22:37;;;;;;;;;12.60;10.80;;;;;6.94;47.96;98987.78;6343069;20;2782610;-44
2022/01/31 09:25:07;;;;;;;;;19.00;16.33;;;;;7.14;48.05;98990.16;6284520;20;3573252;-44
2022/01/31 09:27:35;;;;;;;;;13.00;11.00;;;;;7.10;48.17;98982.44;6318373;20;2775326;-44
2022/01/31 09:30:12;;;;;;;;;20.67;16.00;;;;;7.53;47.70;98971.84;6284603;20;2815972;-45
2022/01/31 09:32:41;;;;;;;;;15.00;11.00;;;;;7.63;47.21;98976.53;6316248;20;2784847;-44
2022/01/31 09:35:10;;;;;;;;;15.00;10.67;;;;;7.74;46.44;98967.00;6312947;20;2790988;-45
2022/01/31 09:37:38;;;;;;;;;19.67;17.00;;;;;7.58;47.01;98973.31;6313922;20;3548426;-44
2022/01/31 09:40:12;;;;;;;;;21.67;17.00;;;;;7.84;46.77;98968.16;6339928;20;2834695;-45
2022/01/31 09:42:57;;;;;;;;;19.00;13.50;;;;;7.76;47.11;98959.75;6316509;20;2805490;-45
2022/01/31 09:45:51;;;;;;;;;22.67;16.00;;;;;7.69;47.54;98960.16;6281257;20;3578446;-44
2022/01/31 09:48:43;;;;;;;;;21.67;12.33;;;;;7.69;46.88;98964.63;6312914;20;3547132;-45
2022/01/31 09:51:22;;;;;;;;;12.20;8.40;;;;;7.50;47.49;98954.19;6341361;20;2768067;-47
2022/01/31 09:53:55;;;;;;;;;13.50;13.50;;;;;7.72;46.92;98947.56;6282689;20;2790055;-44
2022/01/31 09:56:40;;;;;;;;;19.20;14.80;;;;;7.76;47.41;98933.03;6306403;20;2810819;-44
2022/01/31 09:59:11;;;;;;;;;17.00;12.00;;;;;7.75;47.84;98917.97;6289196;20;2803427;-44
2022/01/31 10:01:52;;;;;;;;;18.80;13.00;;;;;7.69;47.86;98912.06;6310941;20;2807576;-43
2022/01/31 10:04:34;;;;;;;;;14.50;9.00;;;;;8.06;47.40;98920.44;6286912;20;2763904;-43
2022/01/31 10:07:05;;;;;;;;;15.00;12.50;;;;;7.53;47.92;98905.94;6288585;20;2794014;-44
2022/01/31 10:09:34;;;;;;;;;15.00;15.00;;;;;7.60;48.47;98896.59;6287718;20;2792003;-44
2022/01/31 10:18:03;;;;;;;;;17.67;12.00;;;;;7.59;48.78;98870.84;6283605;20;3528393;-43
2022/01/31 10:20:35;;;;;;;;;13.80;11.00;;;;;7.56;48.67;98865.69;6340172;20;2780482;-43
2022/01/31 10:23:13;;;;;;;;;19.00;11.00;;;;;7.75;48.41;98857.38;6281949;20;3536883;-46
2022/01/31 10:25:47;;;;;;;;;17.00;11.80;;;;;7.94;47.73;98867.75;6344837;20;2787742;-44
2022/01/31 10:28:20;;;;;;;;;11.67;8.83;;;;;7.66;48.34;98864.16;6329717;20;1812779;-44
2022/01/31 10:30:52;;;;;;;;;13.00;10.00;;;;;7.68;48.00;98864.03;6288372;20;2780448;-43
2022/01/31 10:33:25;;;;;;;;;10.00;10.00;;;;;7.63;48.64;98855.47;6286386;20;2773192;-44
2022/01/31 10:35:54;;;;;;;;;16.80;11.40;;;;;7.89;48.51;98835.94;6311225;20;2798174;-43
2022/01/31 10:38:32;;;;;;;;;10.50;9.00;;;;;7.93;48.17;98844.66;6286799;20;2779505;-44
2022/01/31 10:44:55;;;;;;;;;12.33;12.33;;;;;7.91;48.34;98834.03;6286964;20;2788808;-45
2022/01/31 10:53:02;;;;;;;;;21.50;15.00;;;;;8.01;50.20;98812.94;6284694;20;2828505;-46
2022/01/31 10:55:30;;;;;;;;;21.00;13.50;;;;;8.12;48.02;98807.72;6284368;20;2807734;-49
2022/01/31 10:58:07;;;;;;;;;20.67;13.67;;;;;8.11;47.87;98802.50;6282990;20;3566868;-49
2022/01/31 11:00:38;;;;;;;;;18.67;14.00;;;;;8.12;48.42;98798.88;6315529;20;3528368;-47
2022/01/31 11:03:33;;;;;;;;;11.33;11.00;;;;;7.99;48.09;98806.81;6281739;20;2786845;-47
2022/01/31 11:06:08;;;;;;;;;51.00;36.67;;;;;8.03;48.33;98783.41;6317859;20;3639875;-46
2022/01/31 11:08:39;;;;;;;;;97.00;68.33;;;;;8.06;48.81;98785.91;6315881;20;3673207;-46
2022/01/31 11:11:08;;;;;;;;;22.67;16.33;;;;;7.91;49.19;98777.06;6282422;20;3554400;-46
2022/01/31 11:13:38;;;;;;;;;23.00;15.67;;;;;7.95;47.75;98775.91;6283258;20;3557727;-48
2022/01/31 11:16:08;;;;;;;;;24.00;17.00;;;;;7.94;48.66;98773.34;6318487;20;2827329;-46
2022/01/31 11:18:44;;;;;;;;;16.80;10.60;;;;;8.09;48.14;98769.66;6309951;20;2790326;-48
2022/01/31 11:21:14;;;;;;;;;11.80;10.20;;;;;7.88;48.25;98761.25;6313477;20;2794013;-48
2022/01/31 11:23:50;;;;;;;;;22.33;15.67;;;;;7.84;49.16;98763.22;6284928;20;3557536;-47
2022/01/31 11:26:22;;;;;;;;;23.50;15.00;;;;;7.96;48.59;98756.25;6316483;20;2814838;-48
2022/01/31 11:28:52;;;;;;;;;24.00;16.33;;;;;7.99;48.64;98753.38;6284241;20;3557574;-47
2022/01/31 11:31:25;;;;;;;;;31.67;25.33;;;;;7.91;49.06;98745.84;6315616;20;2845155;-47
2022/01/31 11:33:58;;;;;;;;;26.33;16.67;;;;;7.85;49.98;98730.22;6313214;20;3605554;-47
2022/01/31 11:36:27;;;;;;;;;32.50;23.00;;;;;7.72;49.18;98736.47;6283362;20;2862774;-45
2022/01/31 11:38:56;;;;;;;;;26.33;18.33;;;;;7.97;48.79;98727.69;6280438;20;2847144;-48
2022/01/31 11:41:25;;;;;;;;;16.00;14.50;;;;;7.82;49.70;98718.88;6317371;20;2802340;-47
2022/01/31 11:44:34;;;;;;;;;16.33;11.67;;;;;7.91;49.97;98710.25;6284502;20;2806539;-47
2022/01/31 11:47:07;;;;;;;;;22.00;14.00;;;;;7.84;50.87;98698.25;6312401;20;2800465;-46
2022/01/31 11:50:02;;;;;;;;;14.50;14.00;;;;;7.98;49.56;98698.19;6289000;20;2796448;-47
2022/01/31 11:53:03;;;;;;;;;17.33;12.00;;;;;8.14;48.86;98688.19;6284116;20;3525341;-49
2022/01/31 11:55:38;;;;;;;;;19.33;14.33;;;;;7.84;49.01;98683.06;6315136;20;3563918;-47
2022/01/31 11:58:17;;;;;;;;;13.40;10.60;;;;;7.61;49.15;98667.69;6340005;20;2785672;-48